JapanFixed distance
Izu Trail Journey
14 Dec2025
Distance
70km
Finishers
899777 men122 women
Winning time
6:13:36h
Median pace
5.91km/h
Pace distribution
899 finishers · 5.01–11.24 km/h · mean 6.20
Every finisher ran the same 70 km course, so these paces are directly comparable.
Histogram of finisher pace. 899 finishers ranged from 5.01 to 11.24 kilometres per hour, with a mean of 6.20 and a median of 5.91. The busiest band is 5.0 to 5.5 kilometres per hour, with 308 finishers.
Results
Ranks 801–850 of 899
| Rank | Runner | Time | Pace | Cat. | Placing |
|---|---|---|---|---|---|
| 801 | Namima, KotaroJapanMan | 13:29:44h | 5.19 | M55 | 701st M · 38th M55 |
| 802 | Suzuki, KentaJapanMan | 13:29:56h | 5.19 | — | 702nd M |
| 803 | Abe, TaishiJapanMan | 13:30:02h | 5.18 | — | 703rd M |
| 804 | Takahashi, ReoJapanMan | 13:30:30h | 5.18 | M45 | 704th M · 126th M45 |
| 805 | Harauchi, HidekiJapanMan | 13:30:47h | 5.18 | — | 705th M |
| 806 | Ezawa, KenjiJapanMan | 13:31:01h | 5.18 | M50 | 706th M · 99th M50 |
| 807 | Shu, Jian-NanChinaMan | 13:31:02h | 5.18 | M35 | 707th M · 90th M35 |
| 808 | Furukawa, TomoyukiJapanMan サニエスリンク | 13:31:02h | 5.18 | M40 | 707th M · 142nd M40 |
| 809 | Isono, KeikoJapanWoman BPM | 13:31:15h | 5.18 | W45 | 101st F · 22nd W45 |
| 810 | Kannoo, MasanobuJapanMan Runarx | 13:31:35h | 5.17 | M45 | 709th M · 127th M45 |
| 811 | Sakashita, TomohiroJapanMan | 13:31:39h | 5.17 | M50 | 710th M · 100th M50 |
| 812 | Kiba, ToshiyukiJapanMan | 13:31:47h | 5.17 | M45 | 711th M · 128th M45 |
| 813 | Sunaga, NorihikoJapanMan | 13:31:51h | 5.17 | M40 | 712th M · 143rd M40 |
| 814 | Suzuki, HirokoJapanWoman ファンランさがみはら | 13:31:55h | 5.17 | W50 | 102nd F · 10th W50 |
| 815 | Murakami, TomohikoJapanMan *Hokkaido | 13:32:07h | 5.17 | M45 | 713th M · 129th M45 |
| 816 | Ono, TomoyaJapanMan | 13:32:13h | 5.17 | M45 | 714th M · 130th M45 |
| 817 | Tani, HidekiJapanMan なし | 13:32:22h | 5.17 | M55 | 715th M · 39th M55 |
| 818 | Takahashi, MasakiJapanMan | 13:32:24h | 5.17 | — | 716th M |
| 819 | Nakazawa, AkieJapanWoman | 13:32:28h | 5.17 | W23 | 103rd F · 23rd W23 |
| 820 | Aoi, KeitaJapanMan | 13:32:36h | 5.17 | — | 717th M |
| 821 | Yamauchi, JunJapanMan | 13:32:41h | 5.17 | M35 | 718th M · 91st M35 |
| 822 | Sugiyama, HironoriJapanMan | 13:32:45h | 5.17 | — | 719th M |
| 823 | Shimazu, YusukeJapanMan | 13:33:11h | 5.17 | — | 720th M |
| 824 | Oosuka, KeiJapanMan | 13:33:21h | 5.16 | M23 | 721st M · 95th M23 |
| 825 | Ikeda, YasutakaJapanMan | 13:33:24h | 5.16 | — | 722nd M |
| 826 | Shimojima, KentaJapanMan | 13:33:27h | 5.16 | M35 | 723rd M · 92nd M35 |
| 827 | Taroura, YoshimiJapanWoman | 13:33:29h | 5.16 | W35 | 104th F · 13th W35 |
| 828 | Takahashi, RieJapanWoman | 13:33:35h | 5.16 | W50 | 105th F · 11th W50 |
| 829 | Ushida, MitsuhikoJapanMan | 13:33:51h | 5.16 | M60 | 724th M · 11th M60 |
| 830 | Fujikawa, YukihiroJapanMan | 13:33:52h | 5.16 | M45 | 725th M · 131st M45 |
| 831 | Chihara, IkumasaJapanMan Ibuki | 13:34:05h | 5.16 | M50 | 726th M · 101st M50 |
| 832 | Hayashi, KatsuakiJapanMan | 13:34:30h | 5.16 | M45 | 727th M · 132nd M45 |
| 833 | Sawazaki, MasahikoJapanMan Sunday | 13:34:44h | 5.16 | M55 | 728th M · 40th M55 |
| 834 | Kato, YoichiJapanMan | 13:34:46h | 5.16 | — | 729th M |
| 835 | Kimura, ShigeruJapanMan RXL | 13:34:50h | 5.15 | M50 | 730th M · 102nd M50 |
| 836 | Sugiyama, KosukeJapanMan | 13:36:17h | 5.14 | M55 | 731st M · 41st M55 |
| 837 | Akashi, TakafumiJapanMan | 13:36:27h | 5.14 | M40 | 732nd M · 144th M40 |
| 838 | Sakaya, TomoyukiJapanMan | 13:36:55h | 5.14 | M40 | 733rd M · 145th M40 |
| 839 | Nakano, TsutomuJapanMan | 13:36:57h | 5.14 | M50 | 734th M · 103rd M50 |
| 840 | Oishi, KazuyaJapanMan | 13:37:03h | 5.14 | M55 | 735th M · 42nd M55 |
| 841 | Yamamoto, YaeJapanWoman | 13:37:15h | 5.14 | W23 | 106th F · 24th W23 |
| 842 | Hisada, MiyukiJapanWoman | 13:37:38h | 5.14 | — | 107th F |
| 843 | Ishida, AkiraJapanMan | 13:37:53h | 5.13 | M55 | 736th M · 43rd M55 |
| 844 | Morioka, HirokiJapanMan | 13:37:57h | 5.13 | M50 | 737th M · 104th M50 |
| 845 | Oshio, AsamiJapanWoman MSP | 13:38:04h | 5.13 | W35 | 108th F · 14th W35 |
| 846 | Miyamoto, KazunariJapanMan | 13:38:26h | 5.13 | — | 738th M |
| 847 | Mori, HayatoJapanMan Team Ijk. | 13:38:29h | 5.13 | M50 | 739th M · 105th M50 |
| 848 | Hamasaki, TetsuyaJapanMan | 13:38:35h | 5.13 | M40 | 740th M · 146th M40 |
| 849 | Utsumi, JunichiJapanMan 冒険中毒 | 13:38:51h | 5.13 | — | 741st M |
| 850 | Uchiyama, EijiJapanMan 脳天ランナーズ | 13:39:20h | 5.13 | M40 | 742nd M · 147th M40 |
- 801Namima, KotaroJapanMan701st M · 38th M55Time13:29:44hPace5.19Cat.M55
- 802Suzuki, KentaJapanMan702nd MTime13:29:56hPace5.19
- 803Abe, TaishiJapanMan703rd MTime13:30:02hPace5.18
- 804Takahashi, ReoJapanMan704th M · 126th M45Time13:30:30hPace5.18Cat.M45
- 805Harauchi, HidekiJapanMan705th MTime13:30:47hPace5.18
- 806Ezawa, KenjiJapanMan706th M · 99th M50Time13:31:01hPace5.18Cat.M50
- 807Shu, Jian-NanChinaMan707th M · 90th M35Time13:31:02hPace5.18Cat.M35
- 808Furukawa, TomoyukiJapanManサニエスリンク707th M · 142nd M40Time13:31:02hPace5.18Cat.M40
- 809Isono, KeikoJapanWomanBPM101st F · 22nd W45Time13:31:15hPace5.18Cat.W45
- 810Kannoo, MasanobuJapanManRunarx709th M · 127th M45Time13:31:35hPace5.17Cat.M45
- 811Sakashita, TomohiroJapanMan710th M · 100th M50Time13:31:39hPace5.17Cat.M50
- 812Kiba, ToshiyukiJapanMan711th M · 128th M45Time13:31:47hPace5.17Cat.M45
- 813Sunaga, NorihikoJapanMan712th M · 143rd M40Time13:31:51hPace5.17Cat.M40
- 814Suzuki, HirokoJapanWomanファンランさがみはら102nd F · 10th W50Time13:31:55hPace5.17Cat.W50
- 815Murakami, TomohikoJapanMan*Hokkaido713th M · 129th M45Time13:32:07hPace5.17Cat.M45
- 816Ono, TomoyaJapanMan714th M · 130th M45Time13:32:13hPace5.17Cat.M45
- 817Tani, HidekiJapanManなし715th M · 39th M55Time13:32:22hPace5.17Cat.M55
- 818Takahashi, MasakiJapanMan716th MTime13:32:24hPace5.17
- 819Nakazawa, AkieJapanWoman103rd F · 23rd W23Time13:32:28hPace5.17Cat.W23
- 820Aoi, KeitaJapanMan717th MTime13:32:36hPace5.17
- 821Yamauchi, JunJapanMan718th M · 91st M35Time13:32:41hPace5.17Cat.M35
- 822Sugiyama, HironoriJapanMan719th MTime13:32:45hPace5.17
- 823Shimazu, YusukeJapanMan720th MTime13:33:11hPace5.17
- 824Oosuka, KeiJapanMan721st M · 95th M23Time13:33:21hPace5.16Cat.M23
- 825Ikeda, YasutakaJapanMan722nd MTime13:33:24hPace5.16
- 826Shimojima, KentaJapanMan723rd M · 92nd M35Time13:33:27hPace5.16Cat.M35
- 827Taroura, YoshimiJapanWoman104th F · 13th W35Time13:33:29hPace5.16Cat.W35
- 828Takahashi, RieJapanWoman105th F · 11th W50Time13:33:35hPace5.16Cat.W50
- 829Ushida, MitsuhikoJapanMan724th M · 11th M60Time13:33:51hPace5.16Cat.M60
- 830Fujikawa, YukihiroJapanMan725th M · 131st M45Time13:33:52hPace5.16Cat.M45
- 831Chihara, IkumasaJapanManIbuki726th M · 101st M50Time13:34:05hPace5.16Cat.M50
- 832Hayashi, KatsuakiJapanMan727th M · 132nd M45Time13:34:30hPace5.16Cat.M45
- 833Sawazaki, MasahikoJapanManSunday728th M · 40th M55Time13:34:44hPace5.16Cat.M55
- 834Kato, YoichiJapanMan729th MTime13:34:46hPace5.16
- 835Kimura, ShigeruJapanManRXL730th M · 102nd M50Time13:34:50hPace5.15Cat.M50
- 836Sugiyama, KosukeJapanMan731st M · 41st M55Time13:36:17hPace5.14Cat.M55
- 837Akashi, TakafumiJapanMan732nd M · 144th M40Time13:36:27hPace5.14Cat.M40
- 838Sakaya, TomoyukiJapanMan733rd M · 145th M40Time13:36:55hPace5.14Cat.M40
- 839Nakano, TsutomuJapanMan734th M · 103rd M50Time13:36:57hPace5.14Cat.M50
- 840Oishi, KazuyaJapanMan735th M · 42nd M55Time13:37:03hPace5.14Cat.M55
- 841Yamamoto, YaeJapanWoman106th F · 24th W23Time13:37:15hPace5.14Cat.W23
- 842Hisada, MiyukiJapanWoman107th FTime13:37:38hPace5.14
- 843Ishida, AkiraJapanMan736th M · 43rd M55Time13:37:53hPace5.13Cat.M55
- 844Morioka, HirokiJapanMan737th M · 104th M50Time13:37:57hPace5.13Cat.M50
- 845Oshio, AsamiJapanWomanMSP108th F · 14th W35Time13:38:04hPace5.13Cat.W35
- 846Miyamoto, KazunariJapanMan738th MTime13:38:26hPace5.13
- 847Mori, HayatoJapanManTeam Ijk.739th M · 105th M50Time13:38:29hPace5.13Cat.M50
- 848Hamasaki, TetsuyaJapanMan740th M · 146th M40Time13:38:35hPace5.13Cat.M40
- 849Utsumi, JunichiJapanMan冒険中毒741st MTime13:38:51hPace5.13
- 850Uchiyama, EijiJapanMan脳天ランナーズ742nd M · 147th M40Time13:39:20hPace5.13Cat.M40
Showing ranks 801–850 of 899